Tuesday, October 16, 2018, 11:03 AM GMT
Back to Local

CWQO, Ile Bicquette, Que.

Location: , , Canada Lat: 48.416
Local Time: 11:03 AM GMT (11:03 GMT) Lon: -68.893
Time Zone: GMT Elev: 22 ft

Show me the last for .
Show Coded

Time T Td Feel RH Dir Speed Gust Alt SLP Vis Weather Sky Remarks
2018-10-16 10:00 42 34 29 74 240° 32 40 - - 0 Peak wind: 40 mph (35 kts) from 250° at 22 min
2018-10-16 09:00 42 36 30 77 240° 30 38 - - 0 Peak wind: 37 mph (33 kts) from 240° at 06 min
2018-10-16 08:00 41 37 29 85 240° 30 36 - - 0 Peak wind: 35 mph (31 kts) from 240° at 57 min
2018-10-16 07:00 41 41 35 99 240° 10 - - - 0 None
2018-10-16 06:00 40 39 38 98 200° 3 - - - 0 None
2018-10-16 05:00 40 39 35 97 260° 7 - - - 0 None
2018-10-16 04:00 41 40 - 97 70° 2 - - - 0 None
2018-10-16 03:00 40 40 36 97 50° 6 - - - 0 None
2018-10-16 02:00 41 40 36 97 70° 7 - - - 0 None
2018-10-16 01:00 41 40 34 97 50° 12 - - - 0 None
2018-10-16 00:00 43 41 40 91 60° 6 - - - 0 None
2018-10-15 23:00 44 41 43 89 120° 3 - - - 0 None
2018-10-15 22:00 41 38 - 89 300° 1 - - - 0 None
2018-10-15 21:00 40 38 36 91 60° 7 - - - 0 None
2018-10-15 20:00 41 39 36 91 60° 8 - - - 0 None
2018-10-15 19:00 43 38 39 85 70° 6 - - - 0 None
2018-10-15 18:00 42 39 39 86 10° 5 - - - 0 None
2018-10-15 17:00 44 38 41 78 50° 5 - - - 0 None
2018-10-15 16:00 44 38 43 80 330° 3 - - - 0 None
2018-10-15 15:00 46 39 - 76 200° 1 - - - 0 None
2018-10-15 14:00 46 38 45 74 180° 3 - - - 0 None
2018-10-15 13:00 43 39 40 86 170° 5 - - - 0 None
2018-10-15 12:00 40 38 36 91 160° 6 - - - 0 None

Support USWX by starting your Amazon purchase here.